createdAt,value
2019-02-14T00:01:15.365Z,1.35
2019-02-14T00:03:41.489Z,1.13
2019-02-14T00:06:07.377Z,1.36
2019-02-14T00:08:33.256Z,1.38
2019-02-14T00:10:59.312Z,1.35
2019-02-14T00:13:25.178Z,1.35
2019-02-14T00:15:51.019Z,1.36
2019-02-14T00:18:17.214Z,1.36
2019-02-14T00:20:43.079Z,1.37
2019-02-14T00:23:08.907Z,1.38
2019-02-14T00:25:35.048Z,1.38
2019-02-14T00:28:00.918Z,1.38
2019-02-14T00:30:26.772Z,1.35
2019-02-14T00:32:52.877Z,1.31
2019-02-14T00:35:24.850Z,1.28
2019-02-14T00:37:46.416Z,1.27
2019-02-14T00:40:12.567Z,1.27
2019-02-14T00:42:38.445Z,1.28
2019-02-14T00:45:05.322Z,1.26
2019-02-14T00:47:31.428Z,1.26
2019-02-14T00:49:57.305Z,1.22
2019-02-14T00:52:23.160Z,1.20
2019-02-14T00:54:49.248Z,1.20
2019-02-14T00:57:15.127Z,1.18
2019-02-14T00:59:41.039Z,1.16
2019-02-14T01:02:07.247Z,1.16
2019-02-14T01:04:33.087Z,1.15
2019-02-14T01:06:58.957Z,1.17
2019-02-14T01:09:25.061Z,1.17
2019-02-14T01:11:50.946Z,1.19
2019-02-14T01:14:16.892Z,1.21
2019-02-14T01:16:42.942Z,1.21
2019-02-14T01:19:08.930Z,1.23
2019-02-14T01:21:34.845Z,1.22
2019-02-14T01:24:00.798Z,1.25
2019-02-14T01:26:26.626Z,1.26
2019-02-14T01:28:52.495Z,1.25
2019-02-14T01:31:18.709Z,1.25
2019-02-14T01:33:44.635Z,1.26
2019-02-14T01:36:10.607Z,1.27
2019-02-14T01:38:36.670Z,1.29
2019-02-14T01:41:02.724Z,1.30
2019-02-14T01:43:28.809Z,1.30
2019-02-14T01:45:54.769Z,1.31
2019-02-14T01:48:20.624Z,1.32
2019-02-14T01:50:46.525Z,1.35
2019-02-14T01:53:12.624Z,1.37
2019-02-14T01:55:38.477Z,1.38
2019-02-14T01:58:05.266Z,1.38
2019-02-14T02:00:31.466Z,1.40
2019-02-14T02:02:57.352Z,1.38
2019-02-14T02:05:23.198Z,1.36
2019-02-14T02:07:49.355Z,1.37
2019-02-14T02:10:15.539Z,1.37
2019-02-14T02:12:41.408Z,1.36
2019-02-14T02:15:08.861Z,1.36
2019-02-14T02:17:34.709Z,1.38
2019-02-14T02:20:00.591Z,1.39
2019-02-14T02:22:26.740Z,1.41
2019-02-14T02:24:52.759Z,1.41
2019-02-14T02:27:18.609Z,1.44
2019-02-14T02:29:44.756Z,1.43
2019-02-14T02:32:10.651Z,1.45
2019-02-14T02:34:36.513Z,1.44
2019-02-14T02:37:02.627Z,1.44
2019-02-14T02:39:28.475Z,1.42
2019-02-14T02:41:54.349Z,1.43
2019-02-14T02:44:20.423Z,1.42
2019-02-14T02:46:46.308Z,1.44
2019-02-14T02:49:12.137Z,1.43
2019-02-14T02:51:38.203Z,1.45
2019-02-14T02:54:04.188Z,1.46
2019-02-14T02:56:30.065Z,1.47
2019-02-14T02:58:56.173Z,1.47
2019-02-14T03:01:22.165Z,1.49
2019-02-14T03:03:48.132Z,1.46
2019-02-14T03:06:14.250Z,1.42
2019-02-14T03:08:40.118Z,1.43
2019-02-14T03:11:06.063Z,1.43
2019-02-14T03:13:32.219Z,1.44
2019-02-14T03:15:58.087Z,1.46
2019-02-14T03:18:23.987Z,1.47
2019-02-14T03:20:50.087Z,1.48
2019-02-14T03:23:15.984Z,1.48
2019-02-14T03:25:41.883Z,1.49
2019-02-14T03:28:07.914Z,1.49
2019-02-14T03:30:33.887Z,1.50
2019-02-14T03:32:59.761Z,1.50
2019-02-14T03:35:25.885Z,1.47
2019-02-14T03:37:51.740Z,1.46
2019-02-14T03:40:17.715Z,1.44
2019-02-14T03:42:43.770Z,1.42
2019-02-14T03:45:13.946Z,1.41
2019-02-14T03:47:39.901Z,1.39
2019-02-14T03:50:07.732Z,1.38
2019-02-14T03:52:33.612Z,1.33
2019-02-14T03:54:59.564Z,1.24
2019-02-14T03:57:25.893Z,1.18
2019-02-14T03:59:51.775Z,1.20
2019-02-14T04:02:17.774Z,1.22
2019-02-14T04:04:43.823Z,1.27
2019-02-14T04:07:09.750Z,1.32
2019-02-14T04:09:35.594Z,1.35
2019-02-14T04:12:01.755Z,1.38
2019-02-14T04:14:27.644Z,1.39
2019-02-14T04:16:53.736Z,1.40
2019-02-14T04:19:19.908Z,1.42
2019-02-14T04:21:45.862Z,1.43
2019-02-14T04:24:11.841Z,1.46
2019-02-14T04:26:37.782Z,1.45
2019-02-14T04:29:03.662Z,1.25
2019-02-14T04:31:29.603Z,1.45
2019-02-14T04:33:55.648Z,1.46
2019-02-14T04:36:21.632Z,1.44
2019-02-14T04:38:47.466Z,1.43
2019-02-14T04:41:13.590Z,1.43
2019-02-14T04:43:39.463Z,1.44
2019-02-14T04:46:05.319Z,1.46
2019-02-14T04:48:31.468Z,1.46
2019-02-14T04:50:57.367Z,1.47
2019-02-14T04:53:23.276Z,1.48
2019-02-14T04:55:49.418Z,1.49
2019-02-14T04:58:15.251Z,1.52
2019-02-14T05:00:42.871Z,1.52
2019-02-14T05:03:08.998Z,1.53
2019-02-14T05:05:34.882Z,1.53
2019-02-14T05:08:00.838Z,1.50
2019-02-14T05:10:26.956Z,1.48
2019-02-14T05:12:52.914Z,1.49
2019-02-14T05:15:18.891Z,1.49
2019-02-14T05:17:45.024Z,1.51
2019-02-14T05:20:11.138Z,1.52
2019-02-14T05:22:36.983Z,1.54
2019-02-14T05:25:04.070Z,1.56
2019-02-14T05:27:29.917Z,1.55
2019-02-14T05:29:55.771Z,1.56
2019-02-14T05:32:21.966Z,1.56
2019-02-14T05:34:47.854Z,1.56
2019-02-14T05:37:13.717Z,1.55
2019-02-14T05:39:39.734Z,1.55
2019-02-14T05:42:05.608Z,1.55
2019-02-14T05:44:31.614Z,1.56
2019-02-14T05:46:57.621Z,1.57
2019-02-14T05:49:23.569Z,1.58
2019-02-14T05:51:49.529Z,1.42
2019-02-14T05:54:15.570Z,1.59
2019-02-14T05:56:41.461Z,1.58
2019-02-14T05:59:07.329Z,1.59
2019-02-14T06:01:33.341Z,1.60
2019-02-14T06:03:59.233Z,1.59
2019-02-14T06:06:25.204Z,1.58
2019-02-14T06:08:51.162Z,1.57
2019-02-14T06:11:17.027Z,1.58
2019-02-14T06:13:42.970Z,1.61
2019-02-14T06:16:09.168Z,1.62
2019-02-14T06:18:35.055Z,1.63
2019-02-14T06:21:00.916Z,1.62
2019-02-14T06:23:27.008Z,1.61
2019-02-14T06:25:52.853Z,1.62
2019-02-14T06:28:18.723Z,1.62
2019-02-14T06:30:44.661Z,1.65
2019-02-14T06:33:10.513Z,1.65
2019-02-14T06:35:36.369Z,1.69
2019-02-14T06:38:02.574Z,1.70
2019-02-14T06:40:28.420Z,1.71
2019-02-14T06:42:54.253Z,1.73
2019-02-14T06:45:20.412Z,1.74
2019-02-14T06:47:46.288Z,1.74
2019-02-14T06:50:12.311Z,1.74
2019-02-14T06:52:40.243Z,1.74
2019-02-14T06:55:06.491Z,1.78
2019-02-14T06:57:32.389Z,1.80
2019-02-14T06:59:58.613Z,1.81
2019-02-14T07:02:24.627Z,1.85
2019-02-14T07:04:50.475Z,1.87
2019-02-14T07:07:18.571Z,1.89
2019-02-14T07:09:44.284Z,1.90
2019-02-14T07:12:10.264Z,1.91
2019-02-14T07:14:36.328Z,1.93
2019-02-14T07:17:02.166Z,1.94
2019-02-14T07:19:28.047Z,1.96
2019-02-14T07:21:54.122Z,1.96
2019-02-14T07:24:20.010Z,1.95
2019-02-14T07:26:45.900Z,1.97
2019-02-14T07:29:12.040Z,1.99
2019-02-14T07:31:37.897Z,1.99
2019-02-14T07:34:04.121Z,2.00
2019-02-14T07:36:30.137Z,2.00
2019-02-14T07:38:56.030Z,2.01
2019-02-14T07:41:21.907Z,2.01
2019-02-14T07:43:48.008Z,2.02
2019-02-14T07:46:22.353Z,2.01
2019-02-14T07:48:41.754Z,2.02
2019-02-14T07:51:07.860Z,2.04
2019-02-14T07:53:33.768Z,2.06
2019-02-14T07:55:59.640Z,2.07
2019-02-14T07:58:25.858Z,2.09
2019-02-14T08:00:51.798Z,2.12
2019-02-14T08:03:17.658Z,2.15
2019-02-14T08:05:43.611Z,2.17
2019-02-14T08:08:09.795Z,2.21
2019-02-14T08:10:35.673Z,2.24
2019-02-14T08:13:01.625Z,2.26
2019-02-14T08:15:27.480Z,2.30
2019-02-14T08:17:53.466Z,2.33
2019-02-14T08:20:20.319Z,2.36
2019-02-14T08:22:46.215Z,2.38
2019-02-14T08:25:12.299Z,2.41
2019-02-14T08:27:38.354Z,2.42
2019-02-14T08:30:12.153Z,2.45
2019-02-14T08:32:38.128Z,2.45
2019-02-14T08:35:06.529Z,2.46
2019-02-14T08:37:32.530Z,2.48
2019-02-14T08:39:58.405Z,2.48
2019-02-14T08:42:24.556Z,2.48
2019-02-14T08:44:50.451Z,2.49
2019-02-14T08:47:16.427Z,2.50
2019-02-14T08:49:42.469Z,2.51
2019-02-14T08:52:08.458Z,2.53
2019-02-14T08:54:34.334Z,2.52
2019-02-14T08:57:00.442Z,2.51
2019-02-14T08:59:26.451Z,2.54
2019-02-14T09:01:52.347Z,2.54
2019-02-14T09:04:18.310Z,2.54
2019-02-14T09:06:44.166Z,2.54
2019-02-14T09:09:10.080Z,2.55
2019-02-14T09:11:36.210Z,2.56
2019-02-14T09:14:02.087Z,2.55
2019-02-14T09:16:27.945Z,2.56
2019-02-14T09:18:53.978Z,2.56
2019-02-14T09:21:19.933Z,2.55
2019-02-14T09:23:45.786Z,2.53
2019-02-14T09:26:11.920Z,2.54
2019-02-14T09:28:37.817Z,2.53
2019-02-14T09:31:03.690Z,2.53
2019-02-14T09:33:29.878Z,2.52
2019-02-14T09:35:55.738Z,2.53
2019-02-14T09:38:21.651Z,2.50
2019-02-14T09:40:47.874Z,2.50
2019-02-14T09:43:13.753Z,2.50
2019-02-14T09:45:39.734Z,2.49
2019-02-14T09:48:05.657Z,2.48
2019-02-14T09:50:31.526Z,2.49
2019-02-14T09:52:57.419Z,2.48
2019-02-14T09:55:23.483Z,2.47
2019-02-14T09:57:49.400Z,2.47
2019-02-14T10:00:15.793Z,2.46
2019-02-14T10:02:43.866Z,2.46
2019-02-14T10:05:09.812Z,2.44
2019-02-14T10:07:35.723Z,2.43
2019-02-14T10:10:01.864Z,2.42
2019-02-14T10:12:27.918Z,2.43
2019-02-14T10:14:53.806Z,2.42
2019-02-14T10:17:22.243Z,2.42
2019-02-14T10:19:47.511Z,2.42
2019-02-14T10:22:13.388Z,2.42
2019-02-14T10:24:39.525Z,2.43
2019-02-14T10:27:05.409Z,2.44
2019-02-14T10:29:31.397Z,2.44
2019-02-14T10:31:57.589Z,2.45
2019-02-14T10:34:23.454Z,2.44
2019-02-14T10:36:49.386Z,2.45
2019-02-14T10:39:15.553Z,2.45
2019-02-14T10:41:41.424Z,2.44
2019-02-14T10:44:07.315Z,2.45
2019-02-14T10:46:35.606Z,2.45
2019-02-14T10:49:01.188Z,2.45
2019-02-14T10:51:27.069Z,2.45
2019-02-14T10:53:53.089Z,2.46
2019-02-14T10:56:18.938Z,2.46
2019-02-14T10:58:44.841Z,2.48
2019-02-14T11:01:11.078Z,2.47
2019-02-14T11:03:37.045Z,2.48
2019-02-14T11:06:02.935Z,2.49
2019-02-14T11:08:31.542Z,2.51
2019-02-14T11:10:56.736Z,2.52
2019-02-14T11:13:22.599Z,2.53
2019-02-14T11:15:48.700Z,2.54
2019-02-14T11:18:14.886Z,2.55
2019-02-14T11:20:41.021Z,2.57
2019-02-14T11:23:07.117Z,2.58
2019-02-14T11:25:33.912Z,2.58
2019-02-14T11:27:59.748Z,2.57
2019-02-14T11:30:25.902Z,2.58
2019-02-14T11:32:51.733Z,2.57
2019-02-14T11:35:17.597Z,2.59
2019-02-14T11:37:43.721Z,2.59
2019-02-14T11:40:11.468Z,2.58
2019-02-14T11:42:37.419Z,2.58
2019-02-14T11:45:05.475Z,2.60
2019-02-14T11:47:31.459Z,2.59
2019-02-14T11:49:57.332Z,2.61
2019-02-14T11:52:23.530Z,2.60
2019-02-14T11:54:49.401Z,2.62
2019-02-14T11:57:15.264Z,2.61
2019-02-14T11:59:41.398Z,2.61
2019-02-14T12:02:07.343Z,2.61
2019-02-14T12:04:33.170Z,2.63
2019-02-14T12:06:59.333Z,2.63
2019-02-14T12:09:25.360Z,2.65
2019-02-14T12:11:51.514Z,2.65
2019-02-14T12:14:17.446Z,2.66
2019-02-14T12:16:43.320Z,2.67
2019-02-14T12:19:09.172Z,2.70
2019-02-14T12:21:35.281Z,2.70
2019-02-14T12:24:01.227Z,2.72
2019-02-14T12:26:27.102Z,2.75
2019-02-14T12:28:53.186Z,2.76
2019-02-14T12:31:19.035Z,2.78
2019-02-14T12:33:44.874Z,2.78
2019-02-14T12:36:11.032Z,2.79
2019-02-14T12:38:36.925Z,2.81
2019-02-14T12:41:02.856Z,2.83
2019-02-14T12:43:28.997Z,2.85
2019-02-14T12:45:54.868Z,2.86
2019-02-14T12:48:20.709Z,2.87
2019-02-14T12:50:46.755Z,2.88
2019-02-14T12:53:12.600Z,2.88
2019-02-14T12:55:38.447Z,2.88
2019-02-14T12:58:04.600Z,2.88
2019-02-14T13:00:30.453Z,2.90
2019-02-14T13:02:56.336Z,2.91
2019-02-14T13:05:22.348Z,2.93
2019-02-14T13:07:48.209Z,2.96
2019-02-14T13:10:14.970Z,2.99
2019-02-14T13:12:41.101Z,3.02
2019-02-14T13:15:11.046Z,3.06
2019-02-14T13:17:36.937Z,3.06
2019-02-14T13:20:03.162Z,3.08
2019-02-14T13:22:29.039Z,3.06
2019-02-14T13:24:54.895Z,3.05
2019-02-14T13:27:20.898Z,3.05
2019-02-14T13:29:46.796Z,3.05
2019-02-14T13:32:13.672Z,3.03
2019-02-14T13:34:39.742Z,3.03
2019-02-14T13:37:06.094Z,3.02
2019-02-14T13:39:32.707Z,3.01
2019-02-14T13:41:58.945Z,3.00
2019-02-14T13:44:24.814Z,3.00
2019-02-14T13:46:50.662Z,3.01
2019-02-14T13:49:16.893Z,3.04
2019-02-14T13:51:42.780Z,3.08
2019-02-14T13:54:08.628Z,3.10
2019-02-14T13:56:34.628Z,3.15
2019-02-14T13:59:00.484Z,3.22
2019-02-14T14:01:26.363Z,3.32
2019-02-14T14:03:52.441Z,3.38
2019-02-14T14:06:18.289Z,3.43
2019-02-14T14:08:44.246Z,3.49
2019-02-14T14:11:10.303Z,3.49
2019-02-14T14:13:36.162Z,3.60
2019-02-14T14:16:02.145Z,3.67
2019-02-14T14:18:28.273Z,3.71
2019-02-14T14:20:54.148Z,3.75
2019-02-14T14:23:20.057Z,3.79
2019-02-14T14:25:46.074Z,3.85
2019-02-14T14:28:11.914Z,3.88
2019-02-14T14:30:37.787Z,3.90
2019-02-14T14:33:03.869Z,3.91
2019-02-14T14:35:29.845Z,3.90
2019-02-14T14:37:55.720Z,3.89
2019-02-14T14:40:21.798Z,3.88
2019-02-14T14:42:52.574Z,3.89
2019-02-14T14:45:23.506Z,3.90
2019-02-14T14:47:49.403Z,3.92
2019-02-14T14:50:15.250Z,3.94
2019-02-14T14:52:41.323Z,3.96
2019-02-14T14:55:07.276Z,3.98
2019-02-14T14:57:33.139Z,4.01
2019-02-14T14:59:59.240Z,4.05
2019-02-14T15:02:25.120Z,4.08
2019-02-14T15:04:51.002Z,4.13
2019-02-14T15:07:17.043Z,4.18
2019-02-14T15:09:42.888Z,4.22
2019-02-14T15:12:08.770Z,4.26
2019-02-14T15:14:34.807Z,4.30
2019-02-14T15:17:00.682Z,4.33
2019-02-14T15:19:26.514Z,4.34
2019-02-14T15:21:52.585Z,4.37
2019-02-14T15:24:18.391Z,4.38
2019-02-14T15:26:44.226Z,4.41
2019-02-14T15:29:10.370Z,4.42
2019-02-14T15:31:36.240Z,4.44
2019-02-14T15:34:02.112Z,4.46
2019-02-14T15:36:28.318Z,4.46
2019-02-14T15:38:54.200Z,4.44
2019-02-14T15:41:20.074Z,4.43
2019-02-14T15:43:46.079Z,4.41
2019-02-14T15:46:11.942Z,4.41
2019-02-14T15:48:37.802Z,4.40
2019-02-14T15:51:03.746Z,4.38
2019-02-14T15:53:29.596Z,4.38
2019-02-14T15:55:55.470Z,4.37
2019-02-14T15:58:21.466Z,4.37
2019-02-14T16:00:49.413Z,4.35
2019-02-14T16:03:17.294Z,4.35
2019-02-14T16:05:42.894Z,4.35
2019-02-14T16:08:08.763Z,4.35
2019-02-14T16:10:34.702Z,4.35
2019-02-14T16:13:00.684Z,4.35
2019-02-14T16:15:26.624Z,4.36
2019-02-14T16:17:52.506Z,4.37
2019-02-14T16:20:19.849Z,4.38
2019-02-14T16:22:45.776Z,4.36
2019-02-14T16:25:11.665Z,4.37
2019-02-14T16:27:37.746Z,4.40
2019-02-14T16:30:07.104Z,4.44
2019-02-14T16:32:32.689Z,4.50
2019-02-14T16:34:58.688Z,4.53
2019-02-14T16:37:24.635Z,4.56
2019-02-14T16:39:52.569Z,4.61
2019-02-14T16:42:19.521Z,4.64
2019-02-14T16:44:45.403Z,4.67
2019-02-14T16:47:11.229Z,4.70
2019-02-14T16:49:37.287Z,4.73
2019-02-14T16:52:03.230Z,4.79
2019-02-14T16:54:29.083Z,4.80
2019-02-14T16:56:55.112Z,4.81
2019-02-14T16:59:20.963Z,4.83
2019-02-14T17:01:46.811Z,4.88
2019-02-14T17:04:12.817Z,4.97
2019-02-14T17:06:38.694Z,5.03
2019-02-14T17:09:04.867Z,5.08
2019-02-14T17:11:31.020Z,5.16
2019-02-14T17:13:57.133Z,5.29
2019-02-14T17:16:23.039Z,5.38
2019-02-14T17:18:49.066Z,5.41
2019-02-14T17:21:14.941Z,5.45
2019-02-14T17:23:40.911Z,5.47
2019-02-14T17:26:07.044Z,5.54
2019-02-14T17:28:33.034Z,5.32
2019-02-14T17:30:58.896Z,5.55
2019-02-14T17:33:24.916Z,5.54
2019-02-14T17:35:50.809Z,5.52
2019-02-14T17:38:16.642Z,5.52
2019-02-14T17:40:45.998Z,5.54
2019-02-14T17:43:10.336Z,5.52
2019-02-14T17:45:36.298Z,5.54
2019-02-14T17:48:02.544Z,5.57
2019-02-14T17:50:28.374Z,5.56
2019-02-14T17:52:54.244Z,5.56
2019-02-14T17:55:20.248Z,5.57
2019-02-14T17:57:46.102Z,5.61
2019-02-14T18:00:12.464Z,5.64
2019-02-14T18:02:38.411Z,5.69
2019-02-14T18:05:05.279Z,5.69
2019-02-14T18:07:31.129Z,5.70
2019-02-14T18:09:57.145Z,5.71
2019-02-14T18:12:23.036Z,5.73
2019-02-14T18:14:48.823Z,5.74
2019-02-14T18:17:14.888Z,5.72
2019-02-14T18:19:40.738Z,5.74
2019-02-14T18:22:06.569Z,5.78
2019-02-14T18:24:32.594Z,5.80
2019-02-14T18:26:58.448Z,5.84
2019-02-14T18:29:24.325Z,5.86
2019-02-14T18:31:50.342Z,5.89
2019-02-14T18:34:16.209Z,5.90
2019-02-14T18:36:42.248Z,5.96
2019-02-14T18:39:08.494Z,6.04
2019-02-14T18:41:34.497Z,6.11
2019-02-14T18:44:00.668Z,6.12
2019-02-14T18:46:26.851Z,6.15
2019-02-14T18:48:52.699Z,6.15
2019-02-14T18:51:18.577Z,6.14
2019-02-14T18:53:44.718Z,6.15
2019-02-14T18:56:10.593Z,6.17
2019-02-14T18:58:36.481Z,6.20
2019-02-14T19:01:02.517Z,6.23
2019-02-14T19:03:28.405Z,6.24
2019-02-14T19:05:54.263Z,6.27
2019-02-14T19:08:20.498Z,6.30
2019-02-14T19:10:46.448Z,6.31
2019-02-14T19:13:12.351Z,6.31
2019-02-14T19:15:38.283Z,6.33
2019-02-14T19:18:04.284Z,6.33
2019-02-14T19:20:30.186Z,6.35
2019-02-14T19:22:56.321Z,6.36
2019-02-14T19:25:22.187Z,6.37
2019-02-14T19:27:48.048Z,6.39
2019-02-14T19:30:14.267Z,6.39
2019-02-14T19:32:40.160Z,6.40
2019-02-14T19:35:07.919Z,6.42
2019-02-14T19:37:34.053Z,6.43
2019-02-14T19:39:59.916Z,6.42
2019-02-14T19:42:25.906Z,6.42
2019-02-14T19:44:51.950Z,6.42
2019-02-14T19:47:17.817Z,6.41
2019-02-14T19:49:43.709Z,6.40
2019-02-14T19:52:11.905Z,6.38
2019-02-14T19:54:37.339Z,6.39
2019-02-14T19:57:03.314Z,6.38
2019-02-14T19:59:29.428Z,6.36
2019-02-14T20:01:55.313Z,6.34
2019-02-14T20:04:21.169Z,6.33
2019-02-14T20:06:47.192Z,6.32
2019-02-14T20:09:13.182Z,6.33
2019-02-14T20:11:39.174Z,6.33
2019-02-14T20:14:05.292Z,6.35
2019-02-14T20:16:31.142Z,6.35
2019-02-14T20:18:57.081Z,6.37
2019-02-14T20:21:23.237Z,6.38
2019-02-14T20:23:49.084Z,6.38
2019-02-14T20:26:15.060Z,6.36
2019-02-14T20:28:41.029Z,6.36
2019-02-14T20:31:06.878Z,6.34
2019-02-14T20:33:32.733Z,6.34
2019-02-14T20:35:58.819Z,6.31
2019-02-14T20:38:24.663Z,6.30
2019-02-14T20:40:50.560Z,6.30
2019-02-14T20:43:16.656Z,6.31
2019-02-14T20:45:42.539Z,6.32
2019-02-14T20:48:08.514Z,6.32
2019-02-14T20:50:34.655Z,6.30
2019-02-14T20:53:00.625Z,6.31
2019-02-14T20:55:26.535Z,6.30
2019-02-14T20:57:52.561Z,6.29
2019-02-14T21:00:26.020Z,6.28
2019-02-14T21:02:51.858Z,6.29
2019-02-14T21:05:17.935Z,6.28
2019-02-14T21:07:43.924Z,6.27
2019-02-14T21:10:09.911Z,6.28
2019-02-14T21:12:36.059Z,6.30
2019-02-14T21:15:02.038Z,6.29
2019-02-14T21:17:27.921Z,6.29
2019-02-14T21:19:53.870Z,6.30
2019-02-14T21:22:19.760Z,6.30
2019-02-14T21:24:45.903Z,6.31
2019-02-14T21:27:11.945Z,6.34
2019-02-14T21:29:37.755Z,6.35
2019-02-14T21:32:03.763Z,6.35
2019-02-14T21:34:29.786Z,6.36
2019-02-14T21:36:55.666Z,6.35
2019-02-14T21:39:21.724Z,6.35
2019-02-14T21:41:47.945Z,6.36
2019-02-14T21:44:13.800Z,6.37
2019-02-14T21:46:39.770Z,6.40
2019-02-14T21:49:05.833Z,6.41
2019-02-14T21:51:31.773Z,6.40
2019-02-14T21:53:57.737Z,6.40
2019-02-14T21:56:23.702Z,6.39
2019-02-14T21:58:49.552Z,6.41
2019-02-14T22:01:17.285Z,6.38
2019-02-14T22:03:43.479Z,6.38
2019-02-14T22:06:09.320Z,6.38
2019-02-14T22:08:35.322Z,6.39
2019-02-14T22:11:01.568Z,6.12
2019-02-14T22:13:27.796Z,6.37
2019-02-14T22:15:53.678Z,6.38
2019-02-14T22:18:19.680Z,6.36
2019-02-14T22:20:45.534Z,6.34
2019-02-14T22:23:11.424Z,6.33
2019-02-14T22:25:37.631Z,6.32
2019-02-14T22:28:03.620Z,6.32
2019-02-14T22:30:29.481Z,6.34
2019-02-14T22:32:55.523Z,6.32
2019-02-14T22:35:21.482Z,6.31
2019-02-14T22:37:47.326Z,6.31
2019-02-14T22:40:13.472Z,6.30
2019-02-14T22:42:46.731Z,6.30
2019-02-14T22:45:08.571Z,6.31
2019-02-14T22:47:34.696Z,6.30
2019-02-14T22:50:00.528Z,6.29
2019-02-14T22:52:26.408Z,6.29
2019-02-14T22:54:52.360Z,6.28
2019-02-14T22:57:18.212Z,6.28
2019-02-14T22:59:44.076Z,6.27
2019-02-14T23:02:10.280Z,6.26
2019-02-14T23:04:36.209Z,6.25
2019-02-14T23:07:02.269Z,6.22
2019-02-14T23:09:28.269Z,6.23
2019-02-14T23:11:54.139Z,6.23
2019-02-14T23:14:20.032Z,6.23
2019-02-14T23:16:46.160Z,6.24
2019-02-14T23:19:12.017Z,6.22
2019-02-14T23:21:37.892Z,6.21
2019-02-14T23:24:03.958Z,6.21
2019-02-14T23:26:29.832Z,6.22
2019-02-14T23:28:55.681Z,6.23
2019-02-14T23:31:21.790Z,6.22
2019-02-14T23:33:47.676Z,6.21
2019-02-14T23:36:13.646Z,6.19
2019-02-14T23:38:40.052Z,6.19
2019-02-14T23:41:05.932Z,6.18
2019-02-14T23:43:31.800Z,6.19
2019-02-14T23:45:57.934Z,6.20
2019-02-14T23:48:23.793Z,6.19
2019-02-14T23:50:49.673Z,6.19
2019-02-14T23:53:15.797Z,6.18
2019-02-14T23:55:41.683Z,6.19
2019-02-14T23:58:07.535Z,6.17
